This is the latest recevied weather packets stored in our database for station/object IW2LAO-13. If no packets are shown the sender has not sent any weather packets the latest 10 day(s).
| Time | Temp. | Humidity | Pressure | Rain* | Wind** | Luminosity | Snow |
|---|---|---|---|---|---|---|---|
| 1777641348 | 20° C | 43% | 1024 hPa | 0 mm | - | 775 W/m² | - |
| 1777640147 | 20° C | 45% | 1024.3 hPa | 0 mm | - | 810 W/m² | - |
| 1777630542 | 18.33° C | 48% | 1026.1 hPa | 0 mm | - | 856 W/m² | - |
| 1777626343 | 16.11° C | 50% | 1026.6 hPa | 0 mm | - | 654 W/m² | - |
| 1777623343 | 14.44° C | 55% | 1026.8 hPa | 0 mm | - | 367 W/m² | - |
| 1777621543 | 13.89° C | 61% | 1026.7 hPa | 0 mm | - | 301 W/m² | - |
| 1777620356 | 13.33° C | 67% | 1026.5 hPa | 0 mm | - | 269 W/m² | - |
| 1777613139 | 11.67° C | 79% | 1025.9 hPa | 0 mm | - | 44 W/m² | - |
| 1777611938 | 11.67° C | 79% | 1025.8 hPa | 0 mm | - | 30 W/m² | - |
| 1777610737 | 11.67° C | 77% | 1025.4 hPa | 0 mm | - | 18 W/m² | - |
| 1777610134 | 11.67° C | 76% | 1025.4 hPa | 0 mm | - | 11 W/m² | - |
| 1777607135 | 12.22° C | 74% | 1025 hPa | 0 mm | - | 0 W/m² | - |
| 1777604135 | 12.22° C | 74% | 1024.8 hPa | 0 mm | - | 0 W/m² | - |
| 1777601733 | 12.22° C | 73% | 1024.8 hPa | 0 mm | - | 0 W/m² | - |
| 1777601132 | 12.78° C | 73% | 1024.8 hPa | 0 mm | - | 0 W/m² | - |
| 1777597531 | 12.78° C | 75% | 1024.8 hPa | 0 mm | - | 0 W/m² | - |
| 1777588529 | 13.89° C | 72% | 1024.2 hPa | 0 mm | - | 0 W/m² | - |
| 1777586734 | 13.33° C | 84% | 1023.9 hPa | 0 mm | - | 0 W/m² | - |
| 1777586131 | 13.89° C | 83% | 1023.8 hPa | 0 mm | - | 0 W/m² | - |
| 1777584928 | 13.89° C | 83% | 1023.5 hPa | 0 mm | - | 0 W/m² | - |
| 1777578325 | 15° C | 77% | 1023.1 hPa | 0 mm | - | 0 W/m² | - |
| 1777577729 | 14.44° C | 78% | 1022.9 hPa | 0 mm | - | 0 W/m² | - |
| 1777575324 | 15° C | 77% | 1022.4 hPa | 0 mm | - | 0 W/m² | - |
| 1777571119 | 16.11° C | 71% | 1021.3 hPa | 0 mm | - | 37 W/m² | - |
| 1777567522 | 16.67° C | 61% | 1021.3 hPa | 0 mm | - | 86 W/m² | - |
* Rain latest hour (hover to see other rain measurements)
** Current wind speed in m/s (hover to see current wind gust speed)